sim
Sign-in with your pilot id or email,
or register
Callsign
Passwort

Schedule Details

Flight Number: EWG9220 (2)
Departure: Dusseldorf International Airport (EDDL) at 05:45
Arrival: Gothenburg Landvetter Airport (ESGG) at 07:45
Route: Eurowings Passenger Schedule. Enter filed route here before submitting Pirep.

Weather Information
Getting current METAR information for EDDL 200250Z 15013KT CAVOK 10/04 Q1011 NOSIG
Getting current METAR information for ESGG 200250Z 14010KT 9999 SCT038 04/03 Q1015

Schedule Frequency

Route Map